sensor_id;sensor_type;location;lat;lon;timestamp;pressure;altitude;pressure_sealevel;temperature;humidity
59417;BME280;45222;52.458;20.914;2022-10-16T00:02:19;100787.27;;;13.57;79.81
59417;BME280;45222;52.458;20.914;2022-10-16T00:05:21;100788.98;;;13.58;79.34
59417;BME280;45222;52.458;20.914;2022-10-16T00:08:24;100789.05;;;13.57;79.11
59417;BME280;45222;52.458;20.914;2022-10-16T00:11:29;100791.18;;;13.54;78.95
59417;BME280;45222;52.458;20.914;2022-10-16T00:14:32;100785.39;;;13.52;78.99
59417;BME280;45222;52.458;20.914;2022-10-16T00:17:34;100784.29;;;13.52;78.99
59417;BME280;45222;52.458;20.914;2022-10-16T00:20:37;100778.99;;;13.54;79.18
59417;BME280;45222;52.458;20.914;2022-10-16T00:23:39;100773.67;;;13.57;79.01
59417;BME280;45222;52.458;20.914;2022-10-16T00:26:42;100772.48;;;13.56;78.81
59417;BME280;45222;52.458;20.914;2022-10-16T00:29:48;100776.53;;;13.53;78.68
59417;BME280;45222;52.458;20.914;2022-10-16T00:32:51;100782.90;;;13.48;78.41
59417;BME280;45222;52.458;20.914;2022-10-16T00:35:53;100782.53;;;13.45;78.35
59417;BME280;45222;52.458;20.914;2022-10-16T00:38:57;100785.92;;;13.45;78.55
59417;BME280;45222;52.458;20.914;2022-10-16T00:42:01;100792.23;;;13.47;78.62
59417;BME280;45222;52.458;20.914;2022-10-16T00:45:05;100795.22;;;13.48;78.43
59417;BME280;45222;52.458;20.914;2022-10-16T00:48:11;100799.41;;;13.50;78.05
59417;BME280;45222;52.458;20.914;2022-10-16T00:51:19;100803.12;;;13.51;77.75
59417;BME280;45222;52.458;20.914;2022-10-16T00:54:26;100802.48;;;13.50;77.55
59417;BME280;45222;52.458;20.914;2022-10-16T00:57:30;100803.65;;;13.51;77.70
59417;BME280;45222;52.458;20.914;2022-10-16T01:00:33;100801.70;;;13.54;77.91
59417;BME280;45222;52.458;20.914;2022-10-16T01:03:37;100807.58;;;13.58;77.76
59417;BME280;45222;52.458;20.914;2022-10-16T01:06:47;100812.96;;;13.61;77.73
59417;BME280;45222;52.458;20.914;2022-10-16T01:10:02;100810.58;;;13.65;77.28
59417;BME280;45222;52.458;20.914;2022-10-16T01:13:10;100812.36;;;13.65;77.06
59417;BME280;45222;52.458;20.914;2022-10-16T01:16:14;100810.29;;;13.64;76.84
59417;BME280;45222;52.458;20.914;2022-10-16T01:19:24;100806.51;;;13.61;77.06
59417;BME280;45222;52.458;20.914;2022-10-16T01:22:36;100806.73;;;13.60;76.90
59417;BME280;45222;52.458;20.914;2022-10-16T01:25:59;100813.38;;;13.60;77.01
59417;BME280;45222;52.458;20.914;2022-10-16T01:29:12;100814.35;;;13.58;77.19
59417;BME280;45222;52.458;20.914;2022-10-16T01:32:17;100820.09;;;13.58;77.36
59417;BME280;45222;52.458;20.914;2022-10-16T01:35:25;100821.52;;;13.54;77.26
59417;BME280;45222;52.458;20.914;2022-10-16T01:38:31;100820.95;;;13.54;77.10
59417;BME280;45222;52.458;20.914;2022-10-16T01:41:39;100824.55;;;13.54;77.29
59417;BME280;45222;52.458;20.914;2022-10-16T01:44:44;100822.50;;;13.52;77.17
59417;BME280;45222;52.458;20.914;2022-10-16T01:47:50;100823.73;;;13.53;77.49
59417;BME280;45222;52.458;20.914;2022-10-16T01:50:57;100820.09;;;13.54;77.76
59417;BME280;45222;52.458;20.914;2022-10-16T01:54:02;100817.45;;;13.57;78.04
59417;BME280;45222;52.458;20.914;2022-10-16T01:57:08;100814.86;;;13.59;78.01
59417;BME280;45222;52.458;20.914;2022-10-16T02:00:13;100819.06;;;13.60;77.88
59417;BME280;45222;52.458;20.914;2022-10-16T02:03:18;100818.16;;;13.60;77.81
59417;BME280;45222;52.458;20.914;2022-10-16T02:06:21;100817.64;;;13.60;77.71
59417;BME280;45222;52.458;20.914;2022-10-16T02:09:28;100817.06;;;13.61;77.79
59417;BME280;45222;52.458;20.914;2022-10-16T02:12:33;100820.20;;;13.62;77.89
59417;BME280;45222;52.458;20.914;2022-10-16T02:15:37;100817.74;;;13.65;78.02
59417;BME280;45222;52.458;20.914;2022-10-16T02:18:39;100820.77;;;13.65;77.91
59417;BME280;45222;52.458;20.914;2022-10-16T02:21:46;100823.57;;;13.66;77.63
59417;BME280;45222;52.458;20.914;2022-10-16T02:24:55;100825.52;;;13.63;77.61
59417;BME280;45222;52.458;20.914;2022-10-16T02:28:02;100825.80;;;13.61;77.65
59417;BME280;45222;52.458;20.914;2022-10-16T02:31:09;100823.98;;;13.62;77.76
59417;BME280;45222;52.458;20.914;2022-10-16T02:34:42;100824.47;;;13.63;77.87
59417;BME280;45222;52.458;20.914;2022-10-16T02:37:53;100826.79;;;13.66;77.86
59417;BME280;45222;52.458;20.914;2022-10-16T02:40:56;100825.77;;;13.68;77.91
59417;BME280;45222;52.458;20.914;2022-10-16T02:43:59;100825.81;;;13.71;77.79
59417;BME280;45222;52.458;20.914;2022-10-16T02:47:02;100826.23;;;13.73;77.68
59417;BME280;45222;52.458;20.914;2022-10-16T02:50:06;100828.07;;;13.72;77.55
59417;BME280;45222;52.458;20.914;2022-10-16T02:53:08;100830.61;;;13.72;77.70
59417;BME280;45222;52.458;20.914;2022-10-16T02:56:11;100831.86;;;13.72;77.86
59417;BME280;45222;52.458;20.914;2022-10-16T02:59:13;100831.23;;;13.73;77.99
59417;BME280;45222;52.458;20.914;2022-10-16T03:02:16;100831.59;;;13.73;78.11
59417;BME280;45222;52.458;20.914;2022-10-16T03:05:18;100831.79;;;13.66;78.16
59417;BME280;45222;52.458;20.914;2022-10-16T03:08:21;100832.80;;;13.61;78.11
59417;BME280;45222;52.458;20.914;2022-10-16T03:11:25;100837.80;;;13.57;77.95
59417;BME280;45222;52.458;20.914;2022-10-16T03:14:28;100845.20;;;13.56;78.11
59417;BME280;45222;52.458;20.914;2022-10-16T03:17:32;100848.47;;;13.55;78.17
59417;BME280;45222;52.458;20.914;2022-10-16T03:20:34;100851.41;;;13.57;78.32
59417;BME280;45222;52.458;20.914;2022-10-16T03:23:37;100857.09;;;13.57;78.07
59417;BME280;45222;52.458;20.914;2022-10-16T03:26:40;100852.72;;;13.56;77.77
59417;BME280;45222;52.458;20.914;2022-10-16T03:29:42;100850.75;;;13.52;77.72
59417;BME280;45222;52.458;20.914;2022-10-16T03:32:45;100851.05;;;13.50;77.74
59417;BME280;45222;52.458;20.914;2022-10-16T03:35:52;100859.17;;;13.48;77.87
59417;BME280;45222;52.458;20.914;2022-10-16T03:38:55;100856.90;;;13.48;77.89
59417;BME280;45222;52.458;20.914;2022-10-16T03:41:57;100856.54;;;13.48;77.72
59417;BME280;45222;52.458;20.914;2022-10-16T03:45:00;100853.57;;;13.46;77.64
59417;BME280;45222;52.458;20.914;2022-10-16T03:48:02;100855.13;;;13.44;77.57
59417;BME280;45222;52.458;20.914;2022-10-16T03:51:05;100854.20;;;13.41;77.38
59417;BME280;45222;52.458;20.914;2022-10-16T03:54:09;100853.00;;;13.39;77.57
59417;BME280;45222;52.458;20.914;2022-10-16T03:57:11;100856.60;;;13.39;77.76
59417;BME280;45222;52.458;20.914;2022-10-16T04:00:14;100863.30;;;13.37;77.79
59417;BME280;45222;52.458;20.914;2022-10-16T04:03:17;100863.54;;;13.36;77.58
59417;BME280;45222;52.458;20.914;2022-10-16T04:06:21;100863.38;;;13.32;77.52
59417;BME280;45222;52.458;20.914;2022-10-16T04:09:23;100865.27;;;13.27;77.32
59417;BME280;45222;52.458;20.914;2022-10-16T04:12:26;100870.96;;;13.20;77.17
59417;BME280;45222;52.458;20.914;2022-10-16T04:15:28;100874.59;;;13.16;77.39
59417;BME280;45222;52.458;20.914;2022-10-16T04:18:31;100871.35;;;13.13;77.52
59417;BME280;45222;52.458;20.914;2022-10-16T04:21:34;100873.62;;;13.10;77.62
59417;BME280;45222;52.458;20.914;2022-10-16T04:24:36;100871.45;;;13.07;77.63
59417;BME280;45222;52.458;20.914;2022-10-16T04:27:39;100873.89;;;13.05;77.43
59417;BME280;45222;52.458;20.914;2022-10-16T04:30:42;100878.30;;;12.99;77.40
59417;BME280;45222;52.458;20.914;2022-10-16T04:33:44;100879.10;;;12.90;77.41
59417;BME280;45222;52.458;20.914;2022-10-16T04:36:48;100875.17;;;12.79;77.53
59417;BME280;45222;52.458;20.914;2022-10-16T04:39:50;100879.55;;;12.66;77.84
59417;BME280;45222;52.458;20.914;2022-10-16T04:42:53;100885.52;;;12.57;78.17
59417;BME280;45222;52.458;20.914;2022-10-16T04:45:55;100891.20;;;12.50;78.34
59417;BME280;45222;52.458;20.914;2022-10-16T04:48:59;100893.30;;;12.44;78.31
59417;BME280;45222;52.458;20.914;2022-10-16T04:52:01;100895.69;;;12.38;78.22
59417;BME280;45222;52.458;20.914;2022-10-16T04:55:05;100898.55;;;12.30;78.41
59417;BME280;45222;52.458;20.914;2022-10-16T04:58:08;100895.86;;;12.24;78.49
59417;BME280;45222;52.458;20.914;2022-10-16T05:01:11;100898.38;;;12.15;78.78
59417;BME280;45222;52.458;20.914;2022-10-16T05:04:13;100899.94;;;12.08;79.09
59417;BME280;45222;52.458;20.914;2022-10-16T05:07:17;100903.20;;;12.03;79.03
59417;BME280;45222;52.458;20.914;2022-10-16T05:10:19;100907.61;;;11.96;79.24
59417;BME280;45222;52.458;20.914;2022-10-16T05:13:23;100915.84;;;11.91;79.37
59417;BME280;45222;52.458;20.914;2022-10-16T05:16:25;100916.83;;;11.85;79.49
59417;BME280;45222;52.458;20.914;2022-10-16T05:19:28;100918.35;;;11.79;79.75
59417;BME280;45222;52.458;20.914;2022-10-16T05:22:30;100922.13;;;11.74;80.22
59417;BME280;45222;52.458;20.914;2022-10-16T05:25:33;100922.75;;;11.72;80.24
59417;BME280;45222;52.458;20.914;2022-10-16T05:28:36;100925.74;;;11.69;80.14
59417;BME280;45222;52.458;20.914;2022-10-16T05:31:39;100925.84;;;11.62;80.42
59417;BME280;45222;52.458;20.914;2022-10-16T05:34:41;100923.67;;;11.59;80.45
59417;BME280;45222;52.458;20.914;2022-10-16T05:37:44;100920.60;;;11.56;80.74
59417;BME280;45222;52.458;20.914;2022-10-16T05:40:51;100920.38;;;11.53;81.04
59417;BME280;45222;52.458;20.914;2022-10-16T05:43:54;100923.00;;;11.50;81.43
59417;BME280;45222;52.458;20.914;2022-10-16T05:46:56;100927.60;;;11.51;81.60
59417;BME280;45222;52.458;20.914;2022-10-16T05:49:59;100930.33;;;11.53;81.46
59417;BME280;45222;52.458;20.914;2022-10-16T05:53:01;100934.61;;;11.53;81.50
59417;BME280;45222;52.458;20.914;2022-10-16T05:56:06;100938.42;;;11.52;81.49
59417;BME280;45222;52.458;20.914;2022-10-16T05:59:11;100935.38;;;11.52;81.90
59417;BME280;45222;52.458;20.914;2022-10-16T06:02:21;100943.33;;;11.54;82.03
59417;BME280;45222;52.458;20.914;2022-10-16T06:05:28;100945.48;;;11.57;82.20
59417;BME280;45222;52.458;20.914;2022-10-16T06:08:32;100947.95;;;11.62;82.27
59417;BME280;45222;52.458;20.914;2022-10-16T06:11:34;100952.79;;;11.70;82.12
59417;BME280;45222;52.458;20.914;2022-10-16T06:14:37;100954.59;;;11.77;82.21
59417;BME280;45222;52.458;20.914;2022-10-16T06:17:39;100955.92;;;11.88;82.25
59417;BME280;45222;52.458;20.914;2022-10-16T06:20:42;100959.49;;;11.99;82.23
59417;BME280;45222;52.458;20.914;2022-10-16T06:23:45;100956.96;;;12.13;82.32
59417;BME280;45222;52.458;20.914;2022-10-16T06:26:48;100954.15;;;12.28;82.24
59417;BME280;45222;52.458;20.914;2022-10-16T06:29:51;100963.09;;;12.43;82.03
59417;BME280;45222;52.458;20.914;2022-10-16T06:32:54;100964.33;;;12.58;81.71
59417;BME280;45222;52.458;20.914;2022-10-16T06:36:01;100971.63;;;12.74;81.39
59417;BME280;45222;52.458;20.914;2022-10-16T06:39:05;100970.77;;;12.88;81.18
59417;BME280;45222;52.458;20.914;2022-10-16T06:42:09;100972.80;;;13.05;81.04
59417;BME280;45222;52.458;20.914;2022-10-16T06:45:11;100973.14;;;13.24;80.94
59417;BME280;45222;52.458;20.914;2022-10-16T06:48:14;100976.21;;;13.44;80.61
59417;BME280;45222;52.458;20.914;2022-10-16T06:51:18;100971.42;;;13.65;79.91
59417;BME280;45222;52.458;20.914;2022-10-16T06:54:21;100972.90;;;13.85;79.46
59417;BME280;45222;52.458;20.914;2022-10-16T06:57:24;100973.80;;;14.02;79.00
59417;BME280;45222;52.458;20.914;2022-10-16T07:00:26;100973.14;;;14.21;78.62
59417;BME280;45222;52.458;20.914;2022-10-16T07:03:28;100979.86;;;14.39;78.05
59417;BME280;45222;52.458;20.914;2022-10-16T07:06:32;100987.09;;;14.54;77.64
59417;BME280;45222;52.458;20.914;2022-10-16T07:09:36;100993.30;;;14.62;77.28
59417;BME280;45222;52.458;20.914;2022-10-16T07:12:38;101006.20;;;14.68;76.81
59417;BME280;45222;52.458;20.914;2022-10-16T07:15:41;101009.13;;;14.73;76.60
59417;BME280;45222;52.458;20.914;2022-10-16T07:18:44;101007.04;;;14.76;76.22
59417;BME280;45222;52.458;20.914;2022-10-16T07:21:48;101007.04;;;14.79;76.35
59417;BME280;45222;52.458;20.914;2022-10-16T07:24:51;101000.46;;;14.81;76.32
59417;BME280;45222;52.458;20.914;2022-10-16T07:27:54;100996.08;;;14.80;76.37
59417;BME280;45222;52.458;20.914;2022-10-16T07:31:01;100993.42;;;14.79;76.01
59417;BME280;45222;52.458;20.914;2022-10-16T07:34:04;100997.78;;;14.79;76.10
59417;BME280;45222;52.458;20.914;2022-10-16T07:37:06;100995.27;;;14.78;75.83
59417;BME280;45222;52.458;20.914;2022-10-16T07:40:10;100995.21;;;14.83;76.08
59417;BME280;45222;52.458;20.914;2022-10-16T07:43:13;100988.73;;;14.92;76.22
59417;BME280;45222;52.458;20.914;2022-10-16T07:46:16;100982.61;;;15.06;76.82
59417;BME280;45222;52.458;20.914;2022-10-16T07:49:19;100964.73;;;15.21;76.20
59417;BME280;45222;52.458;20.914;2022-10-16T07:52:22;100963.92;;;15.41;75.42
59417;BME280;45222;52.458;20.914;2022-10-16T07:55:25;100968.15;;;15.54;75.35
59417;BME280;45222;52.458;20.914;2022-10-16T07:58:28;100986.44;;;15.63;74.81
59417;BME280;45222;52.458;20.914;2022-10-16T08:01:30;100999.88;;;15.69;74.11
59417;BME280;45222;52.458;20.914;2022-10-16T08:04:33;101006.13;;;15.73;73.84
59417;BME280;45222;52.458;20.914;2022-10-16T08:07:36;101019.86;;;15.71;73.47
59417;BME280;45222;52.458;20.914;2022-10-16T08:10:39;101022.84;;;15.69;73.35
59417;BME280;45222;52.458;20.914;2022-10-16T08:13:41;101028.08;;;15.72;73.33
59417;BME280;45222;52.458;20.914;2022-10-16T08:16:44;101027.16;;;15.78;73.62
59417;BME280;45222;52.458;20.914;2022-10-16T08:19:47;101025.52;;;15.88;73.37
59417;BME280;45222;52.458;20.914;2022-10-16T08:22:50;101028.45;;;15.96;73.05
59417;BME280;45222;52.458;20.914;2022-10-16T08:25:53;101020.92;;;16.04;72.65
59417;BME280;45222;52.458;20.914;2022-10-16T08:28:55;101025.65;;;16.12;72.63
59417;BME280;45222;52.458;20.914;2022-10-16T08:31:58;101023.02;;;16.23;72.75
59417;BME280;45222;52.458;20.914;2022-10-16T08:35:01;101017.69;;;16.40;72.37
59417;BME280;45222;52.458;20.914;2022-10-16T08:38:04;101022.13;;;16.55;71.75
59417;BME280;45222;52.458;20.914;2022-10-16T08:41:21;101028.04;;;16.69;71.37
59417;BME280;45222;52.458;20.914;2022-10-16T08:44:34;101028.45;;;16.83;71.33
59417;BME280;45222;52.458;20.914;2022-10-16T08:47:50;101032.87;;;16.95;71.16
59417;BME280;45222;52.458;20.914;2022-10-16T08:50:57;101028.67;;;17.01;70.61
59417;BME280;45222;52.458;20.914;2022-10-16T08:54:03;101025.89;;;17.06;70.37
59417;BME280;45222;52.458;20.914;2022-10-16T08:57:11;101031.20;;;17.10;69.88
59417;BME280;45222;52.458;20.914;2022-10-16T09:00:16;101035.21;;;17.07;70.04
59417;BME280;45222;52.458;20.914;2022-10-16T09:03:24;101038.31;;;17.06;70.01
59417;BME280;45222;52.458;20.914;2022-10-16T09:06:40;101043.81;;;17.07;69.89
59417;BME280;45222;52.458;20.914;2022-10-16T09:09:54;101039.73;;;17.12;70.34
59417;BME280;45222;52.458;20.914;2022-10-16T09:13:06;101038.63;;;17.23;70.33
59417;BME280;45222;52.458;20.914;2022-10-16T09:16:16;101033.79;;;17.31;69.57
59417;BME280;45222;52.458;20.914;2022-10-16T09:19:26;101031.19;;;17.38;69.28
59417;BME280;45222;52.458;20.914;2022-10-16T09:22:32;101030.98;;;17.46;68.96
59417;BME280;45222;52.458;20.914;2022-10-16T09:25:35;101030.08;;;17.52;68.99
59417;BME280;45222;52.458;20.914;2022-10-16T09:28:38;101033.30;;;17.63;69.06
59417;BME280;45222;52.458;20.914;2022-10-16T09:31:42;101034.17;;;17.74;68.65
59417;BME280;45222;52.458;20.914;2022-10-16T09:34:48;101034.71;;;17.82;68.59
59417;BME280;45222;52.458;20.914;2022-10-16T09:37:54;101031.73;;;17.89;68.40
59417;BME280;45222;52.458;20.914;2022-10-16T09:40:58;101025.24;;;17.94;68.29
59417;BME280;45222;52.458;20.914;2022-10-16T09:44:02;101032.36;;;17.98;68.40
59417;BME280;45222;52.458;20.914;2022-10-16T09:47:12;101037.77;;;18.09;68.32
59417;BME280;45222;52.458;20.914;2022-10-16T09:50:23;101037.73;;;18.17;68.08
59417;BME280;45222;52.458;20.914;2022-10-16T09:53:40;101036.66;;;18.25;67.99
59417;BME280;45222;52.458;20.914;2022-10-16T09:56:51;101038.86;;;18.29;67.31
59417;BME280;45222;52.458;20.914;2022-10-16T10:00:00;101034.77;;;18.29;67.30
59417;BME280;45222;52.458;20.914;2022-10-16T10:03:11;101036.28;;;18.28;67.34
59417;BME280;45222;52.458;20.914;2022-10-16T10:06:23;101032.77;;;18.31;67.99
59417;BME280;45222;52.458;20.914;2022-10-16T10:09:29;101026.27;;;18.39;67.74
59417;BME280;45222;52.458;20.914;2022-10-16T10:12:44;101024.31;;;18.44;67.67
59417;BME280;45222;52.458;20.914;2022-10-16T10:15:47;101015.29;;;18.49;67.48
59417;BME280;45222;52.458;20.914;2022-10-16T10:18:58;101011.90;;;18.54;66.90
59417;BME280;45222;52.458;20.914;2022-10-16T10:22:01;101007.54;;;18.57;67.03
59417;BME280;45222;52.458;20.914;2022-10-16T10:25:25;100998.33;;;18.60;66.76
59417;BME280;45222;52.458;20.914;2022-10-16T10:28:46;100997.17;;;18.66;66.52
59417;BME280;45222;52.458;20.914;2022-10-16T10:31:57;101008.02;;;18.73;66.45
59417;BME280;45222;52.458;20.914;2022-10-16T10:35:12;101012.14;;;18.81;66.42
59417;BME280;45222;52.458;20.914;2022-10-16T10:38:29;101008.92;;;18.85;66.64
59417;BME280;45222;52.458;20.914;2022-10-16T10:41:56;101006.73;;;18.90;66.89
59417;BME280;45222;52.458;20.914;2022-10-16T10:45:17;101002.65;;;18.97;66.48
59417;BME280;45222;52.458;20.914;2022-10-16T10:48:42;100992.98;;;19.01;66.19
59417;BME280;45222;52.458;20.914;2022-10-16T10:51:59;100989.13;;;19.08;66.40
59417;BME280;45222;52.458;20.914;2022-10-16T10:55:12;100997.52;;;19.16;65.77
59417;BME280;45222;52.458;20.914;2022-10-16T10:58:49;101002.58;;;19.20;65.46
59417;BME280;45222;52.458;20.914;2022-10-16T11:01:56;101006.41;;;19.25;65.09
59417;BME280;45222;52.458;20.914;2022-10-16T11:08:33;101015.87;;;19.23;64.69
59417;BME280;45222;52.458;20.914;2022-10-16T11:11:40;101013.23;;;19.20;64.98
59417;BME280;45222;52.458;20.914;2022-10-16T11:14:49;101010.38;;;19.25;65.42
59417;BME280;45222;52.458;20.914;2022-10-16T11:17:59;101006.19;;;19.30;64.77
59417;BME280;45222;52.458;20.914;2022-10-16T11:21:08;101001.05;;;19.39;64.95
59417;BME280;45222;52.458;20.914;2022-10-16T11:24:18;101005.23;;;19.52;65.01
59417;BME280;45222;52.458;20.914;2022-10-16T11:27:27;101013.02;;;19.67;64.51
59417;BME280;45222;52.458;20.914;2022-10-16T11:30:45;101016.59;;;19.72;63.81
59417;BME280;45222;52.458;20.914;2022-10-16T11:33:53;101022.98;;;19.68;63.76
59417;BME280;45222;52.458;20.914;2022-10-16T11:37:04;101019.51;;;19.69;63.80
59417;BME280;45222;52.458;20.914;2022-10-16T11:40:20;101019.08;;;19.72;63.56
59417;BME280;45222;52.458;20.914;2022-10-16T11:43:28;101016.13;;;19.73;63.04
59417;BME280;45222;52.458;20.914;2022-10-16T11:46:33;101017.67;;;19.64;63.06
59417;BME280;45222;52.458;20.914;2022-10-16T11:49:39;101012.15;;;19.59;63.18
59417;BME280;45222;52.458;20.914;2022-10-16T11:52:47;101007.08;;;19.59;63.57
59417;BME280;45222;52.458;20.914;2022-10-16T11:55:57;101005.06;;;19.57;63.38
59417;BME280;45222;52.458;20.914;2022-10-16T11:59:13;101010.66;;;19.54;63.59
59417;BME280;45222;52.458;20.914;2022-10-16T12:02:32;101018.02;;;19.55;63.77
59417;BME280;45222;52.458;20.914;2022-10-16T12:09:03;101019.70;;;19.50;63.55
59417;BME280;45222;52.458;20.914;2022-10-16T12:12:24;101024.66;;;19.44;63.44
59417;BME280;45222;52.458;20.914;2022-10-16T12:15:28;101026.38;;;19.42;63.93
59417;BME280;45222;52.458;20.914;2022-10-16T12:18:31;101027.80;;;19.47;63.70
59417;BME280;45222;52.458;20.914;2022-10-16T12:21:34;101027.46;;;19.49;63.48
59417;BME280;45222;52.458;20.914;2022-10-16T12:24:38;101026.38;;;19.45;63.56
59417;BME280;45222;52.458;20.914;2022-10-16T12:27:43;101025.55;;;19.41;63.73
59417;BME280;45222;52.458;20.914;2022-10-16T12:30:53;101026.41;;;19.37;63.90
59417;BME280;45222;52.458;20.914;2022-10-16T12:33:59;101020.76;;;19.33;63.87
59417;BME280;45222;52.458;20.914;2022-10-16T12:37:13;101019.77;;;19.29;64.20
59417;BME280;45222;52.458;20.914;2022-10-16T12:40:25;101020.25;;;19.30;64.52
59417;BME280;45222;52.458;20.914;2022-10-16T12:43:38;101022.39;;;19.30;64.67
59417;BME280;45222;52.458;20.914;2022-10-16T12:46:41;101023.38;;;19.29;64.34
59417;BME280;45222;52.458;20.914;2022-10-16T12:49:50;101021.84;;;19.28;64.30
59417;BME280;45222;52.458;20.914;2022-10-16T12:52:52;101027.48;;;19.27;64.91
59417;BME280;45222;52.458;20.914;2022-10-16T12:56:02;101028.98;;;19.27;64.75
59417;BME280;45222;52.458;20.914;2022-10-16T12:59:16;101028.42;;;19.29;64.99
59417;BME280;45222;52.458;20.914;2022-10-16T13:06:17;101037.80;;;19.34;65.26
59417;BME280;45222;52.458;20.914;2022-10-16T13:09:34;101038.91;;;19.31;64.91
59417;BME280;45222;52.458;20.914;2022-10-16T13:12:57;101045.70;;;19.25;64.97
59417;BME280;45222;52.458;20.914;2022-10-16T13:16:12;101050.27;;;19.17;64.96
59417;BME280;45222;52.458;20.914;2022-10-16T13:19:24;101052.63;;;19.09;65.04
59417;BME280;45222;52.458;20.914;2022-10-16T13:22:35;101055.38;;;19.01;65.13
59417;BME280;45222;52.458;20.914;2022-10-16T13:25:53;101057.73;;;18.93;65.32
59417;BME280;45222;52.458;20.914;2022-10-16T13:29:01;101060.20;;;18.84;65.60
59417;BME280;45222;52.458;20.914;2022-10-16T13:32:09;101061.81;;;18.76;65.70
59417;BME280;45222;52.458;20.914;2022-10-16T13:35:21;101066.02;;;18.73;66.10
59417;BME280;45222;52.458;20.914;2022-10-16T13:38:26;101069.92;;;18.72;66.13
59417;BME280;45222;52.458;20.914;2022-10-16T13:41:29;101070.50;;;18.68;66.18
59417;BME280;45222;52.458;20.914;2022-10-16T13:44:39;101074.80;;;18.69;65.94
59417;BME280;45222;52.458;20.914;2022-10-16T13:47:43;101070.14;;;18.68;65.73
59417;BME280;45222;52.458;20.914;2022-10-16T13:50:45;101054.66;;;18.68;65.70
59417;BME280;45222;52.458;20.914;2022-10-16T13:53:48;101050.22;;;18.67;65.69
59417;BME280;45222;52.458;20.914;2022-10-16T13:56:51;101049.27;;;18.66;65.58
59417;BME280;45222;52.458;20.914;2022-10-16T13:59:55;101060.25;;;18.60;65.69
59417;BME280;45222;52.458;20.914;2022-10-16T14:03:03;101063.91;;;18.55;66.09
59417;BME280;45222;52.458;20.914;2022-10-16T14:06:12;101063.59;;;18.49;66.20
59417;BME280;45222;52.458;20.914;2022-10-16T14:09:22;101064.77;;;18.45;66.76
59417;BME280;45222;52.458;20.914;2022-10-16T14:12:26;101061.94;;;18.44;67.05
59417;BME280;45222;52.458;20.914;2022-10-16T14:15:29;101068.45;;;18.41;67.07
59417;BME280;45222;52.458;20.914;2022-10-16T14:18:33;101076.73;;;18.39;67.05
59417;BME280;45222;52.458;20.914;2022-10-16T14:21:37;101076.28;;;18.37;67.09
59417;BME280;45222;52.458;20.914;2022-10-16T14:24:43;101083.52;;;18.37;67.23
59417;BME280;45222;52.458;20.914;2022-10-16T14:27:55;101083.22;;;18.33;67.28
59417;BME280;45222;52.458;20.914;2022-10-16T14:30:59;101088.80;;;18.28;67.58
59417;BME280;45222;52.458;20.914;2022-10-16T14:34:02;101093.10;;;18.26;67.58
59417;BME280;45222;52.458;20.914;2022-10-16T14:37:13;101086.13;;;18.22;67.82
59417;BME280;45222;52.458;20.914;2022-10-16T14:40:18;101090.50;;;18.22;68.29
59417;BME280;45222;52.458;20.914;2022-10-16T14:43:23;101080.39;;;18.22;68.72
59417;BME280;45222;52.458;20.914;2022-10-16T14:46:34;101076.13;;;18.24;69.01
59417;BME280;45222;52.458;20.914;2022-10-16T14:49:37;101080.77;;;18.24;69.05
59417;BME280;45222;52.458;20.914;2022-10-16T14:52:40;101086.09;;;18.23;68.86
59417;BME280;45222;52.458;20.914;2022-10-16T14:55:43;101084.48;;;18.20;68.88
59417;BME280;45222;52.458;20.914;2022-10-16T14:58:46;101087.27;;;18.16;69.00
59417;BME280;45222;52.458;20.914;2022-10-16T15:01:49;101091.83;;;18.10;68.97
59417;BME280;45222;52.458;20.914;2022-10-16T15:04:51;101094.98;;;18.06;69.37
59417;BME280;45222;52.458;20.914;2022-10-16T15:07:55;101090.46;;;18.01;69.65
59417;BME280;45222;52.458;20.914;2022-10-16T15:10:57;101088.95;;;17.97;69.73
59417;BME280;45222;52.458;20.914;2022-10-16T15:14:00;101095.65;;;17.93;69.89
59417;BME280;45222;52.458;20.914;2022-10-16T15:17:03;101099.05;;;17.88;69.97
59417;BME280;45222;52.458;20.914;2022-10-16T15:20:07;101098.84;;;17.83;70.18
59417;BME280;45222;52.458;20.914;2022-10-16T15:23:15;101099.67;;;17.79;70.27
59417;BME280;45222;52.458;20.914;2022-10-16T15:26:18;101106.91;;;17.76;70.56
59417;BME280;45222;52.458;20.914;2022-10-16T15:29:20;101108.54;;;17.73;70.83
59417;BME280;45222;52.458;20.914;2022-10-16T15:32:23;101115.54;;;17.70;70.90
59417;BME280;45222;52.458;20.914;2022-10-16T15:35:25;101113.96;;;17.67;70.94
59417;BME280;45222;52.458;20.914;2022-10-16T15:38:28;101114.67;;;17.64;71.15
59417;BME280;45222;52.458;20.914;2022-10-16T15:41:32;101116.83;;;17.59;71.16
59417;BME280;45222;52.458;20.914;2022-10-16T15:44:34;101120.91;;;17.54;71.24
59417;BME280;45222;52.458;20.914;2022-10-16T15:47:37;101122.30;;;17.49;71.59
59417;BME280;45222;52.458;20.914;2022-10-16T15:50:40;101123.62;;;17.46;71.98
59417;BME280;45222;52.458;20.914;2022-10-16T15:53:44;101127.21;;;17.43;72.10
59417;BME280;45222;52.458;20.914;2022-10-16T15:56:48;101130.59;;;17.41;72.08
59417;BME280;45222;52.458;20.914;2022-10-16T15:59:50;101132.40;;;17.38;72.17
59417;BME280;45222;52.458;20.914;2022-10-16T16:02:54;101131.46;;;17.33;72.37
59417;BME280;45222;52.458;20.914;2022-10-16T16:05:57;101135.18;;;17.28;72.67
59417;BME280;45222;52.458;20.914;2022-10-16T16:09:00;101130.89;;;17.25;72.95
59417;BME280;45222;52.458;20.914;2022-10-16T16:12:02;101136.10;;;17.22;73.12